KCNY/CNY METAR and TAF weather

Enter ICAO airport designator
Station Type Date Time Source
KCNY METAR 2021/05/12 04:53 UTC NOAA

KCNY 120453Z AUTO 25003KT 10SM CLR 09/M13 A3009 RMK AO2 SLP164 T00941128


Station Type Date Time Source
KCNY Decoded METAR 2021/05/12 04:53 UTC NOAA

MOAB CANYONLANDS FIELD, UT, United States (KCNY) 38-46N 109-45W 1390M
May 12, 2021 - 12:53 AM EDT / 2021.05.12 0453 UTC
Wind: from the WSW (250 degrees) at 3 MPH (3 KT):0
Visibility: 10 mile(s):0
Sky conditions: clear
Temperature: 48.9 F (9.4 C)
Dew Point: 9.0 F (-12.8 C)
Relative Humidity: 19%
Pressure (altimeter): 30.09 in. Hg (1018 hPa)
ob: KCNY 120453Z AUTO 25003KT 10SM CLR 09/M13 A3009 RMK AO2 SLP164 T00941128
cycle: 5

Station Type Date Time Source
KCNY TAF 2021/05/12 06:24 UTC NOAA

TAF KCNY 120521Z 1206/1306 25003KT P6SM FEW200

Example: see airport list